createdAt,value
2018-04-15T00:02:27.791Z,13.21
2018-04-15T00:04:57.869Z,13.19
2018-04-15T00:07:27.302Z,13.21
2018-04-15T00:09:56.815Z,13.23
2018-04-15T00:12:26.278Z,13.30
2018-04-15T00:14:55.622Z,13.30
2018-04-15T00:17:24.943Z,13.32
2018-04-15T00:19:55.071Z,13.36
2018-04-15T00:22:25.153Z,13.41
2018-04-15T00:24:54.489Z,13.52
2018-04-15T00:27:24.590Z,13.78
2018-04-15T00:29:53.872Z,14.11
2018-04-15T00:32:23.841Z,14.39
2018-04-15T00:34:53.159Z,14.42
2018-04-15T00:37:22.470Z,14.40
2018-04-15T00:39:51.830Z,14.30
2018-04-15T00:42:21.157Z,14.26
2018-04-15T00:44:50.544Z,14.25
2018-04-15T00:47:20.645Z,14.24
2018-04-15T00:49:50.290Z,14.24
2018-04-15T00:52:19.661Z,14.24
2018-04-15T00:54:49.002Z,14.24
2018-04-15T00:57:18.326Z,14.25
2018-04-15T00:59:47.668Z,14.27
2018-04-15T01:02:17.542Z,14.30
2018-04-15T01:04:47.074Z,14.30
2018-04-15T01:07:16.404Z,14.30
2018-04-15T01:09:46.512Z,14.28
2018-04-15T01:12:15.838Z,14.28
2018-04-15T01:14:45.939Z,14.29
2018-04-15T01:17:15.259Z,14.25
2018-04-15T01:19:45.361Z,14.26
2018-04-15T01:22:14.718Z,14.24
2018-04-15T01:24:44.026Z,14.23
2018-04-15T01:27:13.911Z,14.20
2018-04-15T01:29:44.010Z,14.20
2018-04-15T01:32:13.359Z,14.19
2018-04-15T01:34:42.686Z,14.21
2018-04-15T01:37:12.819Z,14.22
2018-04-15T01:39:42.151Z,14.21
2018-04-15T01:42:12.238Z,14.24
2018-04-15T01:44:41.575Z,14.24
2018-04-15T01:47:11.671Z,14.22
2018-04-15T01:49:40.993Z,14.19
2018-04-15T01:52:12.319Z,14.20
2018-04-15T01:54:41.635Z,14.15
2018-04-15T01:57:10.993Z,14.20
2018-04-15T01:59:40.335Z,14.19
2018-04-15T02:02:09.676Z,14.19
2018-04-15T02:04:39.008Z,14.19
2018-04-15T02:07:08.342Z,14.10
2018-04-15T02:09:37.657Z,14.05
2018-04-15T02:12:07.000Z,14.02
2018-04-15T02:14:36.330Z,13.95
2018-04-15T02:17:05.646Z,13.89
2018-04-15T02:19:34.989Z,13.90
2018-04-15T02:22:05.084Z,13.90
2018-04-15T02:24:35.194Z,13.88
2018-04-15T02:27:04.519Z,13.87
2018-04-15T02:29:34.625Z,13.82
2018-04-15T02:32:03.953Z,13.79
2018-04-15T02:34:34.035Z,13.80
2018-04-15T02:37:03.385Z,13.74
2018-04-15T02:39:33.459Z,13.76
2018-04-15T02:42:02.818Z,13.84
2018-04-15T02:44:33.600Z,13.87
2018-04-15T02:47:02.946Z,13.82
2018-04-15T02:49:33.031Z,13.83
2018-04-15T02:52:02.378Z,13.74
2018-04-15T02:54:31.702Z,13.68
2018-04-15T02:57:01.029Z,13.65
2018-04-15T02:59:30.364Z,13.65
2018-04-15T03:02:00.467Z,13.67
2018-04-15T03:04:29.800Z,13.64
2018-04-15T03:06:59.918Z,13.64
2018-04-15T03:09:30.007Z,13.65
2018-04-15T03:11:59.350Z,13.61
2018-04-15T03:14:28.667Z,13.64
2018-04-15T03:16:57.983Z,13.58
2018-04-15T03:19:27.325Z,13.62
2018-04-15T03:21:57.361Z,13.60
2018-04-15T03:24:27.484Z,13.61
2018-04-15T03:26:57.571Z,13.64
2018-04-15T03:29:26.896Z,13.58
2018-04-15T03:31:57.007Z,13.59
2018-04-15T03:34:26.331Z,13.55
2018-04-15T03:36:56.466Z,13.50
2018-04-15T03:39:25.778Z,13.46
2018-04-15T03:41:55.896Z,13.49
2018-04-15T03:44:25.214Z,13.42
2018-04-15T03:46:54.544Z,13.44
2018-04-15T03:49:27.490Z,13.42
2018-04-15T03:51:56.808Z,13.38
2018-04-15T03:54:26.115Z,13.40
2018-04-15T03:56:55.478Z,13.47
2018-04-15T03:59:25.579Z,13.50
2018-04-15T04:01:54.920Z,13.54
2018-04-15T04:04:24.253Z,13.55
2018-04-15T04:06:53.575Z,13.54
2018-04-15T04:09:22.930Z,13.57
2018-04-15T04:11:52.255Z,13.59
2018-04-15T04:14:21.587Z,13.66
2018-04-15T04:16:50.912Z,13.70
2018-04-15T04:19:38.548Z,13.67
2018-04-15T04:22:26.524Z,13.66
2018-04-15T04:25:11.575Z,13.63
2018-04-15T04:27:41.647Z,13.55
2018-04-15T04:30:10.988Z,13.54
2018-04-15T04:32:40.396Z,13.49
2018-04-15T04:35:10.479Z,13.48
2018-04-15T04:37:40.591Z,13.54
2018-04-15T04:40:09.899Z,13.47
2018-04-15T04:42:39.219Z,13.38
2018-04-15T04:45:08.568Z,13.35
2018-04-15T04:47:37.903Z,13.39
2018-04-15T04:50:07.286Z,13.31
2018-04-15T04:52:37.323Z,13.38
2018-04-15T04:55:06.994Z,13.39
2018-04-15T04:57:36.313Z,13.39
2018-04-15T05:00:05.834Z,13.44
2018-04-15T05:02:35.181Z,13.44
2018-04-15T05:05:05.257Z,13.38
2018-04-15T05:07:34.753Z,13.25
2018-04-15T05:10:04.085Z,13.18
2018-04-15T05:12:33.398Z,13.15
2018-04-15T05:15:02.736Z,13.07
2018-04-15T05:17:32.101Z,13.02
2018-04-15T05:20:01.427Z,12.97
2018-04-15T05:22:31.557Z,13.01
2018-04-15T05:25:01.667Z,13.01
2018-04-15T05:27:32.391Z,13.03
2018-04-15T05:30:01.739Z,13.02
2018-04-15T05:35:31.849Z,12.96
2018-04-15T05:38:01.952Z,12.94
2018-04-15T05:40:31.281Z,12.93
2018-04-15T05:43:01.374Z,12.99
2018-04-15T05:45:30.740Z,12.93
2018-04-15T05:48:00.068Z,12.94
2018-04-15T05:50:29.384Z,12.95
2018-04-15T05:53:00.048Z,12.90
2018-04-15T05:55:30.153Z,12.91
2018-04-15T05:58:00.327Z,12.83
2018-04-15T06:00:30.406Z,12.77
2018-04-15T06:03:00.532Z,12.73
2018-04-15T06:05:31.234Z,12.80
2018-04-15T06:08:00.571Z,12.83
2018-04-15T06:10:30.701Z,12.89
2018-04-15T06:13:00.015Z,12.92
2018-04-15T06:15:29.329Z,12.93
2018-04-15T06:17:58.655Z,12.97
2018-04-15T06:20:28.664Z,13.02
2018-04-15T06:22:57.974Z,13.09
2018-04-15T06:25:27.279Z,13.15
2018-04-15T06:27:56.624Z,13.24
2018-04-15T06:30:26.690Z,13.29
2018-04-15T06:32:56.015Z,13.39
2018-04-15T06:35:25.363Z,13.41
2018-04-15T06:37:54.658Z,13.46
2018-04-15T06:40:23.967Z,13.33
2018-04-15T06:42:53.291Z,13.33
2018-04-15T06:45:22.615Z,13.32
2018-04-15T06:47:53.665Z,13.25
2018-04-15T06:50:23.031Z,13.19
2018-04-15T06:52:52.905Z,13.21
2018-04-15T06:55:22.236Z,13.26
2018-04-15T06:57:52.352Z,13.33
2018-04-15T07:00:21.670Z,13.22
2018-04-15T07:02:50.976Z,13.34
2018-04-15T07:05:21.270Z,13.45
2018-04-15T07:07:51.480Z,13.46
2018-04-15T07:10:20.790Z,13.65
2018-04-15T07:12:57.478Z,13.82
2018-04-15T07:15:26.818Z,14.05
2018-04-15T07:17:56.146Z,14.22
2018-04-15T07:20:25.474Z,14.30
2018-04-15T07:22:55.726Z,14.45
2018-04-15T07:25:32.300Z,14.57
2018-04-15T07:28:01.620Z,14.67
2018-04-15T07:30:30.937Z,14.86
2018-04-15T07:33:00.242Z,15.03
2018-04-15T07:35:29.575Z,15.04
2018-04-15T07:37:58.889Z,15.21
2018-04-15T07:40:28.984Z,15.31
2018-04-15T07:42:58.297Z,15.51
2018-04-15T07:45:27.623Z,15.80
2018-04-15T07:47:56.927Z,16.27
2018-04-15T07:50:26.266Z,16.17
2018-04-15T07:52:55.595Z,16.24
2018-04-15T07:55:24.910Z,16.04
2018-04-15T07:57:54.235Z,16.01
2018-04-15T08:00:24.309Z,16.29
2018-04-15T08:02:53.650Z,16.47
2018-04-15T08:05:23.047Z,16.67
2018-04-15T08:07:52.350Z,17.11
2018-04-15T08:10:22.443Z,17.54
2018-04-15T08:12:51.766Z,17.67
2018-04-15T08:15:21.107Z,17.87
2018-04-15T08:17:50.403Z,17.99
2018-04-15T08:20:19.721Z,17.89
2018-04-15T08:22:49.068Z,17.98
2018-04-15T08:25:21.903Z,17.88
2018-04-15T08:27:51.245Z,18.04
2018-04-15T08:30:20.567Z,17.76
2018-04-15T08:32:49.906Z,17.90
2018-04-15T08:35:19.207Z,17.75
2018-04-15T08:37:48.554Z,17.83
2018-04-15T08:40:17.879Z,18.07
2018-04-15T08:42:47.196Z,18.55
2018-04-15T08:45:17.279Z,19.03
2018-04-15T08:47:46.610Z,19.46
2018-04-15T08:50:15.918Z,19.30
2018-04-15T08:52:46.011Z,19.31
2018-04-15T08:55:15.330Z,18.96
2018-04-15T08:57:44.634Z,18.79
2018-04-15T09:00:14.736Z,18.34
2018-04-15T09:02:44.085Z,18.19
2018-04-15T09:05:13.394Z,18.78
2018-04-15T09:07:42.734Z,19.20
2018-04-15T09:13:26.521Z,21.01
2018-04-15T09:15:55.851Z,20.69
2018-04-15T09:18:25.985Z,20.38
2018-04-15T09:20:55.305Z,20.26
2018-04-15T09:23:24.752Z,20.98
2018-04-15T09:25:54.887Z,21.16
2018-04-15T09:28:24.985Z,21.28
2018-04-15T09:30:59.934Z,21.31
2018-04-15T09:33:29.255Z,21.30
2018-04-15T09:35:59.368Z,20.96
2018-04-15T09:38:29.461Z,21.15
2018-04-15T09:40:58.819Z,21.50
2018-04-15T09:43:28.115Z,21.54
2018-04-15T09:45:57.441Z,21.69
2018-04-15T09:48:26.760Z,22.05
2018-04-15T09:50:56.082Z,22.60
2018-04-15T09:53:26.280Z,22.92
2018-04-15T09:55:56.452Z,23.68
2018-04-15T09:58:26.657Z,23.31
2018-04-15T10:01:02.560Z,22.17
2018-04-15T10:03:31.898Z,21.90
2018-04-15T10:06:01.234Z,21.90
2018-04-15T10:08:31.339Z,22.75
2018-04-15T10:11:00.662Z,22.50
2018-04-15T10:13:30.721Z,22.32
2018-04-15T10:16:00.076Z,22.35
2018-04-15T10:18:30.188Z,22.32
2018-04-15T10:20:59.507Z,22.37
2018-04-15T10:23:29.592Z,21.78
2018-04-15T10:25:58.931Z,21.80
2018-04-15T10:28:28.999Z,22.35
2018-04-15T10:30:59.758Z,22.12
2018-04-15T10:33:29.067Z,22.75
2018-04-15T10:35:59.963Z,22.88
2018-04-15T10:38:30.465Z,23.33
2018-04-15T10:41:19.328Z,23.09
2018-04-15T10:43:52.800Z,22.94
2018-04-15T10:46:22.158Z,23.25
2018-04-15T10:48:51.499Z,22.57
2018-04-15T10:51:20.830Z,22.10
2018-04-15T10:53:50.951Z,22.04
2018-04-15T10:56:21.082Z,22.36
2018-04-15T10:58:51.166Z,21.85
2018-04-15T11:01:20.490Z,22.17
2018-04-15T11:03:50.029Z,22.66
2018-04-15T11:06:19.404Z,22.80
2018-04-15T11:08:49.497Z,23.15
2018-04-15T11:11:18.839Z,23.12
2018-04-15T11:13:48.908Z,23.02
2018-04-15T11:16:18.256Z,23.35
2018-04-15T11:18:48.393Z,23.08
2018-04-15T11:21:17.741Z,23.49
2018-04-15T11:23:47.078Z,23.75
2018-04-15T11:26:17.191Z,23.53
2018-04-15T11:28:46.515Z,23.57
2018-04-15T11:31:17.244Z,23.57
2018-04-15T11:33:46.616Z,24.06
2018-04-15T11:36:15.963Z,24.00
2018-04-15T11:38:46.010Z,22.97
2018-04-15T11:41:15.330Z,22.63
2018-04-15T11:43:44.655Z,22.72
2018-04-15T11:46:14.927Z,22.34
2018-04-15T11:48:44.381Z,22.25
2018-04-15T11:51:13.742Z,21.65
2018-04-15T11:53:43.078Z,21.92
2018-04-15T11:56:13.097Z,22.71
2018-04-15T11:58:43.263Z,22.70
2018-04-15T12:01:12.590Z,23.24
2018-04-15T12:03:41.910Z,22.98
2018-04-15T12:06:11.270Z,22.71
2018-04-15T12:08:40.620Z,22.40
2018-04-15T12:11:09.974Z,22.43
2018-04-15T12:13:39.290Z,22.64
2018-04-15T12:16:08.620Z,22.35
2018-04-15T12:18:38.762Z,22.41
2018-04-15T12:21:08.112Z,22.21
2018-04-15T12:23:37.448Z,21.92
2018-04-15T12:26:06.759Z,21.77
2018-04-15T12:28:36.115Z,21.61
2018-04-15T12:31:05.432Z,21.58
2018-04-15T12:33:34.743Z,22.10
2018-04-15T12:36:04.067Z,22.37
2018-04-15T12:38:33.383Z,23.12
2018-04-15T12:41:02.816Z,24.10
2018-04-15T12:43:32.084Z,24.97
2018-04-15T12:46:01.387Z,25.34
2018-04-15T12:48:33.382Z,24.96
2018-04-15T12:51:03.876Z,25.59
2018-04-15T12:53:33.276Z,25.16
2018-04-15T12:56:03.389Z,25.32
2018-04-15T12:58:32.718Z,25.18
2018-04-15T13:01:02.046Z,25.37
2018-04-15T13:03:32.112Z,24.40
2018-04-15T13:06:01.498Z,23.87
2018-04-15T13:08:31.584Z,23.89
2018-04-15T13:11:01.744Z,23.19
2018-04-15T13:13:31.066Z,23.27
2018-04-15T13:16:00.409Z,23.55
2018-04-15T13:18:29.809Z,23.41
2018-04-15T13:20:59.108Z,23.31
2018-04-15T13:23:28.423Z,23.68
2018-04-15T13:25:58.522Z,23.80
2018-04-15T13:28:27.822Z,24.10
2018-04-15T13:30:58.899Z,24.29
2018-04-15T13:33:28.970Z,24.65
2018-04-15T13:35:58.310Z,25.14
2018-04-15T13:38:28.374Z,25.00
2018-04-15T13:40:57.690Z,24.56
2018-04-15T13:43:27.038Z,24.08
2018-04-15T13:45:56.343Z,24.00
2018-04-15T13:48:26.435Z,23.78
2018-04-15T13:50:55.762Z,23.64
2018-04-15T13:53:25.078Z,23.40
2018-04-15T13:55:55.141Z,22.80
2018-04-15T13:58:24.466Z,22.49
2018-04-15T14:00:53.791Z,22.46
2018-04-15T14:03:23.172Z,22.37
2018-04-15T14:05:52.501Z,22.19
2018-04-15T14:08:22.597Z,22.56
2018-04-15T14:10:52.576Z,22.53
2018-04-15T14:13:21.893Z,22.41
2018-04-15T14:15:51.245Z,22.53
2018-04-15T14:18:20.626Z,22.17
2018-04-15T14:20:49.907Z,21.84
2018-04-15T14:23:19.239Z,21.73
2018-04-15T14:25:48.555Z,21.50
2018-04-15T14:28:18.649Z,22.00
2018-04-15T14:30:47.979Z,22.21
2018-04-15T14:33:18.072Z,22.16
2018-04-15T14:35:47.382Z,22.00
2018-04-15T14:38:17.474Z,21.80
2018-04-15T14:40:46.792Z,21.67
2018-04-15T14:43:16.286Z,21.44
2018-04-15T14:45:45.599Z,21.21
2018-04-15T14:48:14.950Z,21.42
2018-04-15T14:50:45.983Z,21.55
2018-04-15T14:53:16.060Z,21.29
2018-04-15T14:55:45.552Z,20.97
2018-04-15T14:58:14.895Z,20.66
2018-04-15T15:00:44.472Z,20.63
2018-04-15T15:03:13.778Z,20.66
2018-04-15T15:05:43.100Z,20.64
2018-04-15T15:08:12.399Z,20.69
2018-04-15T15:10:41.702Z,20.51
2018-04-15T15:13:11.059Z,20.36
2018-04-15T15:15:41.357Z,20.29
2018-04-15T15:18:11.462Z,20.24
2018-04-15T15:20:41.338Z,20.14
2018-04-15T15:23:10.665Z,20.20
2018-04-15T15:25:39.987Z,20.28
2018-04-15T15:28:09.887Z,20.43
2018-04-15T15:30:39.135Z,20.56
2018-04-15T15:33:08.417Z,20.64
2018-04-15T15:35:38.756Z,20.53
2018-04-15T15:38:08.083Z,20.34
2018-04-15T15:40:37.389Z,20.41
2018-04-15T15:43:06.699Z,20.38
2018-04-15T15:45:36.023Z,20.40
2018-04-15T15:48:05.990Z,20.49
2018-04-15T15:50:41.287Z,20.65
2018-04-15T15:53:15.781Z,20.76
2018-04-15T15:55:47.452Z,20.56
2018-04-15T15:58:16.766Z,20.55
2018-04-15T16:00:46.781Z,20.55
2018-04-15T16:03:16.096Z,20.62
2018-04-15T16:05:46.074Z,20.60
2018-04-15T16:08:21.461Z,20.62
2018-04-15T16:10:50.789Z,20.49
2018-04-15T16:13:21.301Z,20.45
2018-04-15T16:15:50.640Z,20.47
2018-04-15T16:18:19.974Z,20.35
2018-04-15T16:20:49.995Z,20.26
2018-04-15T16:23:19.346Z,20.12
2018-04-15T16:25:49.442Z,19.96
2018-04-15T16:28:18.758Z,20.01
2018-04-15T16:30:50.416Z,19.95
2018-04-15T16:33:26.988Z,19.84
2018-04-15T16:35:57.070Z,19.85
2018-04-15T16:38:26.387Z,19.84
2018-04-15T16:40:55.694Z,19.89
2018-04-15T16:43:25.016Z,19.92
2018-04-15T16:45:55.105Z,19.96
2018-04-15T16:48:24.427Z,19.95
2018-04-15T16:50:53.741Z,19.94
2018-04-15T16:53:23.860Z,19.94
2018-04-15T16:55:53.167Z,19.96
2018-04-15T16:58:24.182Z,19.86
2018-04-15T17:00:53.540Z,19.78
2018-04-15T17:03:22.839Z,19.77
2018-04-15T17:05:52.151Z,19.60
2018-04-15T17:08:21.492Z,19.56
2018-04-15T17:10:50.805Z,19.52
2018-04-15T17:13:20.404Z,19.50
2018-04-15T17:15:50.780Z,19.39
2018-04-15T17:18:20.134Z,19.29
2018-04-15T17:20:49.426Z,19.33
2018-04-15T17:23:18.775Z,19.22
2018-04-15T17:25:48.844Z,19.21
2018-04-15T17:28:18.156Z,19.19
2018-04-15T17:30:47.549Z,19.04
2018-04-15T17:33:16.871Z,18.99
2018-04-15T17:35:46.209Z,18.95
2018-04-15T17:38:16.283Z,18.95
2018-04-15T17:40:45.582Z,18.95
2018-04-15T17:43:14.946Z,18.91
2018-04-15T17:45:45.221Z,18.86
2018-04-15T17:48:14.528Z,18.85
2018-04-15T17:50:43.964Z,18.80
2018-04-15T17:53:14.041Z,18.76
2018-04-15T17:55:43.381Z,18.76
2018-04-15T17:58:13.635Z,18.74
2018-04-15T18:00:42.940Z,18.69
2018-04-15T18:03:12.252Z,18.66
2018-04-15T18:05:41.583Z,18.66
2018-04-15T18:08:10.882Z,18.59
2018-04-15T18:10:40.181Z,18.58
2018-04-15T18:13:09.514Z,18.55
2018-04-15T18:15:39.608Z,18.54
2018-04-15T18:18:08.950Z,18.52
2018-04-15T18:20:38.262Z,18.52
2018-04-15T18:23:07.614Z,18.53
2018-04-15T18:25:36.947Z,18.53
2018-04-15T18:28:06.301Z,18.53
2018-04-15T18:30:35.627Z,18.51
2018-04-15T18:33:04.963Z,18.42
2018-04-15T18:35:35.042Z,18.42
2018-04-15T18:38:04.382Z,18.44
2018-04-15T18:40:33.691Z,18.35
2018-04-15T18:43:03.780Z,18.29
2018-04-15T18:45:33.103Z,18.23
2018-04-15T18:48:02.423Z,18.11
2018-04-15T18:50:32.502Z,18.08
2018-04-15T18:53:01.826Z,18.05
2018-04-15T18:55:31.132Z,18.05
2018-04-15T18:58:01.227Z,18.00
2018-04-15T19:00:30.533Z,18.00
2018-04-15T19:02:59.854Z,17.90
2018-04-15T19:05:29.287Z,17.85
2018-04-15T19:07:58.625Z,17.81
2018-04-15T19:10:27.971Z,17.76
2018-04-15T19:12:58.058Z,17.69
2018-04-15T19:15:27.401Z,17.70
2018-04-15T19:17:57.501Z,17.52
2018-04-15T19:20:26.831Z,17.39
2018-04-15T19:22:56.914Z,17.36
2018-04-15T19:25:28.373Z,17.27
2018-04-15T19:27:57.695Z,17.16
2018-04-15T19:30:27.803Z,17.20
2018-04-15T19:32:57.225Z,17.12
2018-04-15T19:35:26.533Z,17.12
2018-04-15T19:37:57.446Z,17.07
2018-04-15T19:40:27.656Z,17.02
2018-04-15T19:42:57.008Z,17.00
2018-04-15T19:45:27.154Z,16.97
2018-04-15T19:47:56.437Z,17.00
2018-04-15T19:50:26.631Z,16.90
2018-04-15T19:52:56.057Z,16.82
2018-04-15T19:55:26.124Z,16.74
2018-04-15T19:57:56.155Z,16.72
2018-04-15T20:00:25.460Z,16.67
2018-04-15T20:02:54.835Z,16.63
2018-04-15T20:05:24.880Z,16.58
2018-04-15T20:07:54.206Z,16.57
2018-04-15T20:10:23.575Z,16.52
2018-04-15T20:12:52.875Z,16.48
2018-04-15T20:15:22.179Z,16.45
2018-04-15T20:17:51.578Z,16.43
2018-04-15T20:20:20.941Z,16.42
2018-04-15T20:22:50.837Z,16.43
2018-04-15T20:25:20.347Z,16.46
2018-04-15T20:27:49.659Z,16.45
2018-04-15T20:30:19.722Z,16.44
2018-04-15T20:32:49.725Z,16.43
2018-04-15T20:35:19.050Z,16.39
2018-04-15T20:37:48.397Z,16.39
2018-04-15T20:40:18.483Z,16.38
2018-04-15T20:42:47.775Z,16.39
2018-04-15T20:45:17.090Z,16.39
2018-04-15T20:47:46.430Z,16.39
2018-04-15T20:50:15.710Z,16.39
2018-04-15T20:52:45.020Z,16.41
2018-04-15T20:55:14.366Z,16.42
2018-04-15T20:57:43.639Z,16.39
2018-04-15T21:00:13.700Z,16.34
2018-04-15T21:02:43.784Z,16.30
2018-04-15T21:05:13.100Z,16.27
2018-04-15T21:07:42.433Z,16.17
2018-04-15T21:10:11.748Z,16.13
2018-04-15T21:12:41.052Z,16.16
2018-04-15T21:15:10.369Z,16.07
2018-04-15T21:17:39.701Z,16.09
2018-04-15T21:20:09.776Z,16.07
2018-04-15T21:22:39.100Z,16.05
2018-04-15T21:25:08.411Z,16.01
2018-04-15T21:27:38.509Z,15.97
2018-04-15T21:30:07.802Z,15.91
2018-04-15T21:32:37.111Z,15.87
2018-04-15T21:35:06.632Z,15.82
2018-04-15T21:37:35.940Z,15.78
2018-04-15T21:40:05.443Z,15.73
2018-04-15T21:42:34.774Z,15.71
2018-04-15T21:45:05.042Z,15.65
2018-04-15T21:47:34.342Z,15.61
2018-04-15T21:50:03.686Z,15.59
2018-04-15T21:52:33.742Z,15.53
2018-04-15T21:55:03.043Z,15.51
2018-04-15T21:57:32.393Z,15.48
2018-04-15T22:00:01.717Z,15.46
2018-04-15T22:02:31.773Z,15.45
2018-04-15T22:05:01.105Z,15.46
2018-04-15T22:07:30.420Z,15.45
2018-04-15T22:09:59.735Z,15.44
2018-04-15T22:12:29.036Z,15.46
2018-04-15T22:14:59.098Z,15.43
2018-04-15T22:17:28.427Z,15.38
2018-04-15T22:19:57.732Z,15.36
2018-04-15T22:22:27.034Z,15.30
2018-04-15T22:24:56.374Z,15.29
2018-04-15T22:27:26.482Z,15.26
2018-04-15T22:29:55.789Z,15.28
2018-04-15T22:32:25.888Z,15.29
2018-04-15T22:34:55.175Z,15.30
2018-04-15T22:37:24.493Z,15.25
2018-04-15T22:39:53.833Z,15.17
2018-04-15T22:42:23.920Z,15.13
2018-04-15T22:44:53.221Z,15.12
2018-04-15T22:47:22.539Z,15.10
2018-04-15T22:49:57.998Z,15.02
2018-04-15T22:52:28.076Z,14.93
2018-04-15T22:54:57.395Z,14.89
2018-04-15T22:57:26.694Z,14.84
2018-04-15T22:59:55.978Z,14.80
2018-04-15T23:02:26.093Z,14.77
2018-04-15T23:04:55.405Z,14.71
2018-04-15T23:07:24.742Z,14.64
2018-04-15T23:09:54.051Z,14.59
2018-04-15T23:12:24.124Z,14.53
2018-04-15T23:14:53.417Z,14.46
2018-04-15T23:17:22.741Z,14.45
2018-04-15T23:19:52.042Z,14.50
2018-04-15T23:22:21.343Z,14.47
2018-04-15T23:24:50.674Z,14.42
2018-04-15T23:27:19.996Z,14.36
2018-04-15T23:29:50.267Z,14.35
2018-04-15T23:32:19.595Z,14.34
2018-04-15T23:34:48.906Z,14.28
2018-04-15T23:37:18.225Z,14.20
2018-04-15T23:39:48.299Z,14.16
2018-04-15T23:42:17.701Z,14.11
2018-04-15T23:44:47.009Z,14.08
2018-04-15T23:47:16.306Z,14.06
2018-04-15T23:49:45.618Z,14.11
2018-04-15T23:52:14.942Z,14.15
2018-04-15T23:54:44.268Z,14.11
2018-04-15T23:57:14.341Z,14.09
2018-04-15T23:59:43.846Z,14.04
